Time;durP1;ratioP1;P1;durP2;ratioP2;P2;SDS_P1;SDS_P2;PMS_P1;PMS_P2;Temp;Humidity;BMP_temperature;BMP_pressure;BME280_temperature;BME280_humidity;BME280_pressure;Samples;Min_cycle;Max_cycle;Signal;HPM_P1;HPM_P2
2021/01/06 00:01:28;;;;;;;9.48;6.30;;;6.60;99.90;;;;;;6057110;23;20556;-81
2021/01/06 00:03:57;;;;;;;10.00;7.25;;;6.50;99.90;;;;;;6033370;23;20153;-81
2021/01/06 00:06:30;;;;;;;8.20;6.07;;;6.50;99.90;;;;;;6034885;23;20196;-81
2021/01/06 00:08:57;;;;;;;8.10;6.43;;;6.50;99.90;;;;;;6032272;23;20138;-84
2021/01/06 00:11:34;;;;;;;6.70;5.60;;;6.50;99.90;;;;;;6032298;23;20153;-81
2021/01/06 00:14:01;;;;;;;7.53;6.53;;;6.50;99.90;;;;;;6032496;23;20157;-81
2021/01/06 00:16:28;;;;;;;7.38;5.70;;;6.50;99.90;;;;;;6032724;23;20173;-81
2021/01/06 00:18:54;;;;;;;8.83;7.40;;;6.50;99.90;;;;;;6031950;23;20164;-81
2021/01/06 00:21:21;;;;;;;8.10;6.00;;;6.50;99.90;;;;;;6032425;23;20592;-81
2021/01/06 00:23:47;;;;;;;7.18;6.10;;;6.50;99.90;;;;;;6032577;23;20153;-81
2021/01/06 00:26:13;;;;;;;6.72;5.57;;;6.50;99.90;;;;;;6030678;23;20509;-81
2021/01/06 00:28:39;;;;;;;6.28;5.68;;;6.50;99.90;;;;;;6035973;23;20745;-81
2021/01/06 00:31:05;;;;;;;8.97;6.90;;;6.50;99.90;;;;;;6030773;23;20149;-82
2021/01/06 00:33:34;;;;;;;5.85;5.20;;;6.40;99.90;;;;;;6030964;23;21106;-81
2021/01/06 00:36:04;;;;;;;8.43;5.95;;;6.40;99.90;;;;;;6054956;23;20192;-82
2021/01/06 00:38:31;;;;;;;7.43;5.55;;;6.40;99.90;;;;;;6032246;23;20145;-82
2021/01/06 00:40:57;;;;;;;8.13;6.40;;;6.40;99.90;;;;;;6031912;23;20236;-82
2021/01/06 00:43:23;;;;;;;8.73;6.32;;;6.40;99.90;;;;;;6032562;23;20160;-81
2021/01/06 00:45:50;;;;;;;8.82;6.25;;;6.40;99.90;;;;;;6030744;23;20173;-82
2021/01/06 00:48:16;;;;;;;8.80;6.50;;;6.40;99.90;;;;;;6031816;23;20317;-82
2021/01/06 00:50:43;;;;;;;8.48;6.95;;;6.40;99.90;;;;;;6030641;23;20157;-82
2021/01/06 00:53:28;;;;;;;7.38;6.30;;;6.40;99.90;;;;;;6031082;23;20161;-82
2021/01/06 00:55:59;;;;;;;6.88;6.10;;;6.40;99.90;;;;;;6031049;23;20254;-82
2021/01/06 00:58:27;;;;;;;11.02;7.90;;;6.40;99.90;;;;;;6030351;23;20168;-82
2021/01/06 01:00:56;;;;;;;8.18;5.95;;;6.40;99.90;;;;;;6030797;23;20541;-82
2021/01/06 01:03:26;;;;;;;7.55;5.85;;;6.30;99.90;;;;;;6007199;23;20154;-83
2021/01/06 01:05:57;;;;;;;6.85;5.82;;;6.30;99.90;;;;;;6035033;23;20181;-82
2021/01/06 01:08:24;;;;;;;10.73;6.38;;;6.30;99.90;;;;;;6031715;23;20184;-82
2021/01/06 01:10:54;;;;;;;8.30;6.97;;;6.30;99.90;;;;;;6032197;23;20146;-82
2021/01/06 01:13:25;;;;;;;12.23;7.53;;;6.30;99.90;;;;;;6031083;23;21020;-82
2021/01/06 01:15:54;;;;;;;10.43;6.70;;;6.30;99.90;;;;;;6030700;23;20169;-82
2021/01/06 01:18:27;;;;;;;10.52;7.00;;;6.30;99.90;;;;;;6031955;23;20172;-82
2021/01/06 01:20:55;;;;;;;7.32;6.07;;;6.30;99.90;;;;;;6031993;23;20200;-83
2021/01/06 01:23:22;;;;;;;8.60;6.00;;;6.30;99.90;;;;;;6030670;23;20542;-82
2021/01/06 01:25:49;;;;;;;7.60;5.80;;;6.30;99.90;;;;;;6046112;23;20232;-82
2021/01/06 01:28:16;;;;;;;9.85;6.13;;;6.30;99.90;;;;;;6182004;23;20138;-83
2021/01/06 01:30:43;;;;;;;9.00;7.07;;;6.30;99.90;;;;;;6182140;23;20141;-81
2021/01/06 01:33:12;;;;;;;9.90;6.80;;;6.30;99.90;;;;;;6157045;23;20225;-81
2021/01/06 01:35:38;;;;;;;9.35;6.85;;;6.30;99.90;;;;;;6182640;23;20162;-81
2021/01/06 01:38:06;;;;;;;9.33;6.70;;;6.30;99.90;;;;;;6155549;23;20268;-82
2021/01/06 01:40:37;;;;;;;7.75;6.70;;;6.30;99.90;;;;;;6131375;23;20180;-82
2021/01/06 01:43:18;;;;;;;11.23;7.18;;;6.30;99.90;;;;;;6159260;23;20142;-81
2021/01/06 01:45:44;;;;;;;8.15;7.30;;;6.30;99.90;;;;;;6182458;23;20364;-81
2021/01/06 01:48:31;;;;;;;11.60;7.35;;;6.30;99.90;;;;;;6181938;23;20150;-81
2021/01/06 01:51:02;;;;;;;9.75;6.85;;;6.30;99.90;;;;;;6155968;23;20193;-81
2021/01/06 01:53:37;;;;;;;11.65;8.60;;;6.30;99.90;;;;;;6182313;23;20461;-82
2021/01/06 01:56:06;;;;;;;7.63;6.30;;;6.30;99.90;;;;;;6182587;23;20184;-81
2021/01/06 01:58:33;;;;;;;7.57;6.70;;;6.30;99.90;;;;;;6180594;23;20154;-81
2021/01/06 02:01:00;;;;;;;10.70;8.07;;;6.30;99.90;;;;;;6182549;23;20145;-81
2021/01/06 02:03:44;;;;;;;9.85;7.47;;;6.30;99.90;;;;;;6182843;23;20192;-81
2021/01/06 02:06:25;;;;;;;7.68;6.18;;;6.40;99.90;;;;;;6181763;23;20189;-81
2021/01/06 02:08:58;;;;;;;10.65;6.32;;;6.40;99.90;;;;;;6181604;23;20133;-81
2021/01/06 02:11:38;;;;;;;10.40;7.68;;;6.40;99.90;;;;;;6182071;23;20134;-81
2021/01/06 02:14:16;;;;;;;8.95;7.15;;;6.40;99.90;;;;;;6155840;23;20134;-81
2021/01/06 02:17:07;;;;;;;9.45;6.68;;;6.40;99.90;;;;;;6182329;23;20647;-81
2021/01/06 02:19:41;;;;;;;9.05;7.40;;;6.40;99.90;;;;;;6184478;23;20134;-82
2021/01/06 02:22:10;;;;;;;9.90;7.10;;;6.40;99.90;;;;;;6182823;23;20192;-82
2021/01/06 02:24:37;;;;;;;7.70;6.88;;;6.50;99.90;;;;;;6131319;23;20170;-82
2021/01/06 02:27:04;;;;;;;9.05;6.78;;;6.50;99.90;;;;;;6052716;23;20189;-81
2021/01/06 02:29:31;;;;;;;9.75;7.15;;;6.50;99.90;;;;;;6031417;23;20207;-81
2021/01/06 02:31:57;;;;;;;8.07;5.90;;;6.50;99.90;;;;;;6054546;23;20157;-81
2021/01/06 02:34:23;;;;;;;7.87;5.77;;;6.50;99.90;;;;;;6032570;23;20227;-81
2021/01/06 02:36:49;;;;;;;8.10;7.07;;;6.50;99.90;;;;;;6032321;23;20545;-81
2021/01/06 02:39:16;;;;;;;6.90;6.17;;;6.50;99.90;;;;;;6031573;23;20153;-81
2021/01/06 02:41:43;;;;;;;8.93;7.40;;;6.60;99.90;;;;;;6031920;23;20522;-81
2021/01/06 02:44:09;;;;;;;6.97;5.88;;;6.60;99.90;;;;;;6030235;23;20161;-81
2021/01/06 02:46:36;;;;;;;9.25;5.57;;;6.60;99.90;;;;;;6032078;23;20256;-81
2021/01/06 02:49:05;;;;;;;7.38;5.30;;;6.60;99.90;;;;;;6031414;23;20223;-81
2021/01/06 02:52:02;;;;;;;5.85;4.22;;;6.60;99.90;;;;;;6029807;23;20160;-82
2021/01/06 02:54:34;;;;;;;5.90;4.07;;;6.60;99.90;;;;;;6002391;23;20212;-82
2021/01/06 02:57:00;;;;;;;5.95;3.90;;;6.60;99.90;;;;;;6036482;23;20148;-80
2021/01/06 02:59:33;;;;;;;5.60;4.60;;;6.60;99.90;;;;;;6030910;23;20200;-81
2021/01/06 03:02:01;;;;;;;6.05;5.50;;;6.60;99.90;;;;;;6031546;23;20174;-80
2021/01/06 03:04:31;;;;;;;4.82;4.07;;;6.60;99.90;;;;;;6031777;23;20169;-81
2021/01/06 03:07:02;;;;;;;6.45;5.65;;;6.60;99.90;;;;;;6030794;23;20511;-81
2021/01/06 03:09:33;;;;;;;7.13;5.25;;;6.60;99.90;;;;;;6005961;23;20153;-81
2021/01/06 03:12:03;;;;;;;5.97;5.38;;;6.60;99.90;;;;;;6030093;23;20134;-83
2021/01/06 03:14:31;;;;;;;5.00;4.40;;;6.60;99.90;;;;;;6032063;23;20253;-83
2021/01/06 03:16:58;;;;;;;5.60;4.65;;;6.60;99.90;;;;;;6031842;23;20188;-83
2021/01/06 03:19:26;;;;;;;7.10;6.10;;;6.60;99.90;;;;;;6029768;23;20149;-83
2021/01/06 03:21:55;;;;;;;8.32;5.90;;;6.60;99.90;;;;;;6030425;23;20232;-83
2021/01/06 03:24:26;;;;;;;7.95;5.57;;;6.60;99.90;;;;;;6032305;23;20169;-83
2021/01/06 03:26:56;;;;;;;6.10;4.90;;;6.60;99.90;;;;;;6113899;23;20563;-83
2021/01/06 03:29:22;;;;;;;7.43;6.18;;;6.60;99.90;;;;;;6157379;23;20556;-82
2021/01/06 03:31:49;;;;;;;6.55;5.75;;;6.60;99.90;;;;;;6184046;23;20137;-82
2021/01/06 03:34:22;;;;;;;6.68;5.35;;;6.50;99.90;;;;;;6186692;23;20651;-83
2021/01/06 03:37:25;;;;;;;6.03;5.00;;;6.50;99.90;;;;;;6183769;23;20141;-82
2021/01/06 03:39:58;;;;;;;7.75;6.15;;;6.50;99.90;;;;;;6176753;23;20250;-82
2021/01/06 03:42:25;;;;;;;6.03;4.28;;;6.50;99.90;;;;;;6183308;23;20190;-82
2021/01/06 03:44:52;;;;;;;4.30;3.88;;;6.50;99.90;;;;;;6132818;23;20201;-82
2021/01/06 03:47:21;;;;;;;7.78;5.32;;;6.50;99.90;;;;;;6183316;23;20169;-81
2021/01/06 03:49:54;;;;;;;6.47;5.47;;;6.50;99.90;;;;;;6157502;23;20206;-81
2021/01/06 03:52:59;;;;;;;6.30;4.30;;;6.50;99.90;;;;;;6184973;23;20157;-82
2021/01/06 03:55:53;;;;;;;5.10;4.63;;;6.50;99.90;;;;;;6183398;23;20244;-82
2021/01/06 03:58:59;;;;;;;6.25;5.18;;;6.50;99.90;;;;;;6156704;23;20142;-82
2021/01/06 04:01:55;;;;;;;6.07;4.75;;;6.50;99.90;;;;;;6183893;23;20221;-82
2021/01/06 04:04:37;;;;;;;9.38;5.50;;;6.50;99.90;;;;;;6183334;23;20259;-82
2021/01/06 04:07:05;;;;;;;7.57;6.82;;;6.50;99.90;;;;;;6183334;23;20165;-82
2021/01/06 04:09:38;;;;;;;7.32;6.50;;;6.50;99.90;;;;;;6182927;23;20600;-82
2021/01/06 04:12:13;;;;;;;7.45;6.70;;;6.50;99.90;;;;;;6185098;23;20131;-82
2021/01/06 04:14:40;;;;;;;6.45;5.72;;;6.50;99.90;;;;;;6183806;23;20296;-82
2021/01/06 04:17:22;;;;;;;9.82;6.80;;;6.50;99.90;;;;;;6183298;23;20587;-82
2021/01/06 04:19:52;;;;;;;7.47;6.40;;;6.50;99.90;;;;;;6183587;23;20235;-82
2021/01/06 04:22:35;;;;;;;7.53;6.13;;;6.60;99.90;;;;;;6183025;23;20134;-82
2021/01/06 04:25:01;;;;;;;7.80;6.82;;;6.60;99.90;;;;;;6182836;23;20176;-82
2021/01/06 04:27:27;;;;;;;6.43;5.83;;;6.60;99.90;;;;;;6182204;23;20178;-82
2021/01/06 04:29:53;;;;;;;6.60;5.50;;;6.60;99.90;;;;;;6181726;23;20517;-82
2021/01/06 04:32:19;;;;;;;8.63;6.30;;;6.60;99.90;;;;;;6182709;23;20920;-82
2021/01/06 04:34:45;;;;;;;8.60;7.10;;;6.60;99.90;;;;;;6182950;23;20561;-82
2021/01/06 04:37:11;;;;;;;7.80;6.75;;;6.60;99.90;;;;;;6183207;23;20580;-82
2021/01/06 04:39:37;;;;;;;7.03;6.32;;;6.70;99.90;;;;;;6180870;23;20177;-83
2021/01/06 04:42:06;;;;;;;8.13;5.80;;;6.70;99.90;;;;;;6182940;23;20153;-82
2021/01/06 04:44:55;;;;;;;7.15;5.93;;;6.70;99.90;;;;;;6156821;23;20170;-82
2021/01/06 04:47:37;;;;;;;5.45;4.50;;;6.70;99.90;;;;;;6183146;23;20158;-82
2021/01/06 04:50:22;;;;;;;6.32;4.70;;;6.70;99.90;;;;;;6134809;23;20146;-82
2021/01/06 04:52:58;;;;;;;4.95;4.30;;;6.70;99.90;;;;;;6183320;23;20146;-82
2021/01/06 04:55:52;;;;;;;5.90;5.30;;;6.70;99.90;;;;;;6156861;23;20610;-82
2021/01/06 04:58:46;;;;;;;5.45;4.95;;;6.70;99.90;;;;;;6131193;23;20639;-82
2021/01/06 05:01:45;;;;;;;5.78;4.88;;;6.70;99.90;;;;;;6156261;23;20166;-82
2021/01/06 05:04:52;;;;;;;6.32;5.25;;;6.70;99.90;;;;;;6182887;23;20484;-83
2021/01/06 05:07:55;;;;;;;5.70;4.80;;;6.70;99.90;;;;;;6155684;23;20228;-82
2021/01/06 05:10:38;;;;;;;6.07;4.80;;;6.70;99.90;;;;;;6155968;23;20160;-82
2021/01/06 05:13:44;;;;;;;7.47;5.50;;;6.70;99.90;;;;;;6182455;23;20591;-82
2021/01/06 05:16:19;;;;;;;6.15;5.10;;;6.70;99.90;;;;;;6122506;23;20507;-82
2021/01/06 05:18:46;;;;;;;5.13;3.45;;;6.70;99.90;;;;;;6155909;23;20156;-82
2021/01/06 05:21:17;;;;;;;2.55;2.17;;;6.60;99.90;;;;;;6182786;23;20150;-82
2021/01/06 05:24:29;;;;;;;3.03;1.80;;;6.50;99.90;;;;;;6183037;23;20150;-82
2021/01/06 05:27:13;;;;;;;2.28;1.73;;;6.40;99.90;;;;;;6184658;23;20255;-82
2021/01/06 05:29:49;;;;;;;3.25;2.63;;;6.30;99.90;;;;;;6182720;23;20175;-82
2021/01/06 05:32:19;;;;;;;3.08;2.78;;;6.30;99.90;;;;;;6181294;23;20160;-82
2021/01/06 05:34:49;;;;;;;1.80;1.50;;;6.20;99.90;;;;;;6182188;23;20248;-82
2021/01/06 05:37:16;;;;;;;3.20;2.22;;;6.10;99.90;;;;;;6181923;23;20158;-82
2021/01/06 05:39:42;;;;;;;3.13;2.25;;;6.00;99.90;;;;;;6182341;23;20165;-82
2021/01/06 05:42:22;;;;;;;2.45;2.20;;;5.90;99.90;;;;;;6182866;23;20153;-82
2021/01/06 05:44:53;;;;;;;3.17;2.30;;;5.90;99.90;;;;;;6182463;23;20249;-84
2021/01/06 05:47:38;;;;;;;7.15;3.35;;;5.80;99.90;;;;;;6182260;23;20249;-82
2021/01/06 05:50:14;;;;;;;2.60;2.22;;;5.90;99.90;;;;;;6180683;23;20215;-82
2021/01/06 05:52:40;;;;;;;4.20;2.47;;;5.80;99.90;;;;;;6157149;23;20141;-82
2021/01/06 05:55:15;;;;;;;3.65;3.10;;;5.80;99.90;;;;;;6183915;23;20204;-82
2021/01/06 05:58:17;;;;;;;3.33;3.03;;;5.90;99.90;;;;;;6156925;23;20594;-82
2021/01/06 06:00:55;;;;;;;4.07;3.45;;;5.90;99.90;;;;;;6183123;23;20209;-82
2021/01/06 06:03:43;;;;;;;3.78;2.92;;;5.90;99.90;;;;;;6186031;23;20224;-82
2021/01/06 06:06:51;;;;;;;4.28;3.80;;;6.00;99.90;;;;;;6183013;23;20233;-82
2021/01/06 06:09:41;;;;;;;4.38;2.97;;;6.00;99.90;;;;;;6183062;23;20205;-82
2021/01/06 06:12:36;;;;;;;3.53;3.22;;;6.00;99.90;;;;;;6156044;23;20589;-82
2021/01/06 06:15:30;;;;;;;4.05;3.33;;;6.00;99.90;;;;;;6157061;23;20170;-81
2021/01/06 06:18:14;;;;;;;4.13;3.72;;;6.00;99.90;;;;;;6183281;23;20174;-82
2021/01/06 06:20:46;;;;;;;6.60;4.00;;;6.10;99.90;;;;;;6158337;23;20161;-82
2021/01/06 06:23:55;;;;;;;4.78;4.20;;;6.10;99.90;;;;;;6185963;23;20164;-81
2021/01/06 06:26:33;;;;;;;4.70;3.42;;;6.10;99.90;;;;;;6183207;23;20183;-82
2021/01/06 06:29:11;;;;;;;5.47;4.97;;;6.10;99.90;;;;;;6183479;23;20212;-81
2021/01/06 06:31:38;;;;;;;6.72;4.63;;;6.20;99.90;;;;;;6134770;23;20149;-81
2021/01/06 06:34:08;;;;;;;5.97;3.60;;;6.20;99.90;;;;;;6184175;23;20537;-81
2021/01/06 06:36:42;;;;;;;3.90;3.50;;;6.20;99.90;;;;;;6183655;23;20162;-80
2021/01/06 06:39:37;;;;;;;5.13;4.72;;;6.20;99.90;;;;;;6156407;23;20530;-81
2021/01/06 06:42:19;;;;;;;4.32;3.58;;;6.20;99.90;;;;;;6157473;23;20188;-80
2021/01/06 06:44:51;;;;;;;6.45;4.80;;;6.20;99.90;;;;;;6155579;23;20165;-80
2021/01/06 06:47:22;;;;;;;5.60;4.75;;;6.20;99.90;;;;;;6154652;23;20197;-79
2021/01/06 06:50:15;;;;;;;4.97;4.05;;;6.20;99.90;;;;;;6155222;23;20141;-80
2021/01/06 06:52:57;;;;;;;6.43;4.72;;;6.20;99.90;;;;;;6155480;23;20130;-79
2021/01/06 06:55:33;;;;;;;4.82;4.32;;;6.20;99.90;;;;;;6181471;23;20173;-80
2021/01/06 06:58:37;;;;;;;4.95;4.25;;;6.20;99.90;;;;;;6182903;23;20160;-80
2021/01/06 07:01:10;;;;;;;5.97;4.78;;;6.20;99.90;;;;;;6130488;23;20156;-80
2021/01/06 07:03:39;;;;;;;6.32;4.40;;;6.20;99.90;;;;;;6182056;23;20197;-80
2021/01/06 07:06:10;;;;;;;5.15;4.65;;;6.20;99.90;;;;;;6155279;23;20186;-80
2021/01/06 07:08:46;;;;;;;6.93;5.13;;;6.30;99.90;;;;;;6181118;23;20664;-81
2021/01/06 07:11:18;;;;;;;8.52;5.55;;;6.30;99.90;;;;;;6179993;23;20165;-81
2021/01/06 07:13:47;;;;;;;6.45;5.60;;;6.30;99.90;;;;;;6181836;23;20595;-80
2021/01/06 07:16:17;;;;;;;10.10;9.10;;;6.30;99.90;;;;;;6180374;23;20794;-79
2021/01/06 07:18:47;;;;;;;12.20;10.98;;;6.20;99.90;;;;;;6180462;23;20644;-80
2021/01/06 07:21:21;;;;;;;11.27;9.75;;;6.20;99.90;;;;;;6182917;23;20546;-79
2021/01/06 07:23:53;;;;;;;8.55;7.68;;;6.30;99.90;;;;;;6157983;23;20134;-80
2021/01/06 07:26:24;;;;;;;6.53;5.93;;;6.40;99.90;;;;;;6137751;23;20200;-80
2021/01/06 07:49:32;;;;;;;6.68;5.85;;;6.60;99.90;;;;;;6124615;23;20811;-81
2021/01/06 07:52:05;;;;;;;5.75;5.25;;;6.60;99.90;;;;;;6180927;23;20141;-82
2021/01/06 07:54:53;;;;;;;7.25;6.55;;;6.60;99.90;;;;;;6157784;23;20174;-83
2021/01/06 07:57:27;;;;;;;4.45;4.03;;;6.60;99.90;;;;;;6181865;23;20519;-82
2021/01/06 07:59:59;;;;;;;7.75;4.85;;;6.60;99.90;;;;;;6181765;23;20165;-79
2021/01/06 08:03:06;;;;;;;6.80;5.82;;;6.60;99.90;;;;;;6181068;23;20181;-79
2021/01/06 08:05:35;;;;;;;7.03;4.80;;;6.60;99.90;;;;;;6180732;23;20177;-80
2021/01/06 08:08:15;;;;;;;6.25;5.60;;;6.60;99.90;;;;;;6154198;23;20177;-80
2021/01/06 08:10:47;;;;;;;6.68;6.07;;;6.60;99.90;;;;;;6154495;23;20581;-79
2021/01/06 08:13:23;;;;;;;9.32;8.10;;;6.60;99.90;;;;;;6106563;23;20696;-79
2021/01/06 08:16:06;;;;;;;10.00;7.57;;;6.60;99.90;;;;;;6132258;23;20248;-80
2021/01/06 08:18:41;;;;;;;5.30;4.75;;;6.60;99.90;;;;;;6156419;23;20221;-81
2021/01/06 08:21:36;;;;;;;5.78;5.18;;;6.70;99.90;;;;;;6156229;23;20851;-80
2021/01/06 08:24:04;;;;;;;10.02;5.40;;;6.70;99.90;;;;;;6114450;23;20241;-82
2021/01/06 08:26:33;;;;;;;7.20;6.47;;;6.80;99.90;;;;;;6183420;23;20676;-81
2021/01/06 08:29:18;;;;;;;7.88;7.03;;;6.80;99.90;;;;;;6183179;23;20575;-83
2021/01/06 08:31:47;;;;;;;9.95;8.82;;;6.80;99.90;;;;;;6161926;23;20165;-82
2021/01/06 08:34:34;;;;;;;8.88;7.97;;;6.80;99.90;;;;;;6184661;23;20189;-79
2021/01/06 08:37:06;;;;;;;8.13;7.15;;;6.80;99.90;;;;;;6156651;23;20267;-81
2021/01/06 08:39:35;;;;;;;8.10;6.65;;;6.80;99.90;;;;;;6182771;23;20158;-82
2021/01/06 08:42:20;;;;;;;6.70;5.95;;;6.90;99.90;;;;;;6182889;23;20146;-85
2021/01/06 08:44:58;;;;;;;8.82;7.93;;;6.90;99.90;;;;;;6156788;23;20174;-81
2021/01/06 08:47:47;;;;;;;8.13;7.32;;;6.90;99.90;;;;;;6156221;23;20220;-79
2021/01/06 08:50:15;;;;;;;9.18;8.25;;;6.90;99.90;;;;;;6182216;23;20212;-83
2021/01/06 08:52:52;;;;;;;12.55;10.07;;;6.80;99.90;;;;;;6183592;23;20186;-81
2021/01/06 08:55:20;;;;;;;10.70;8.57;;;6.80;99.90;;;;;;6183615;23;20161;-80
2021/01/06 08:57:58;;;;;;;10.35;7.75;;;6.80;99.90;;;;;;6158171;23;20150;-79
2021/01/06 09:00:42;;;;;;;11.68;10.23;;;6.80;99.90;;;;;;6134852;23;20158;-78
2021/01/06 09:04:09;;;;;;;13.82;12.38;;;6.80;99.90;;;;;;6156035;23;20703;-80
2021/01/06 09:11:05;;;;;;;10.50;9.25;;;6.80;99.90;;;;;;6155316;23;20168;-81
2021/01/06 09:13:49;;;;;;;11.77;9.82;;;6.80;99.90;;;;;;6131740;23;20150;-81
2021/01/06 09:16:36;;;;;;;10.20;9.20;;;6.80;99.90;;;;;;6109009;23;20232;-81
2021/01/06 09:19:16;;;;;;;9.18;8.07;;;6.80;99.90;;;;;;6108956;23;20150;-83
2021/01/06 09:22:23;;;;;;;12.07;9.98;;;6.80;99.90;;;;;;6110710;23;20168;-82
2021/01/06 09:25:27;;;;;;;10.40;9.00;;;6.90;99.90;;;;;;6159847;23;20184;-80
2021/01/06 09:32:54;;;;;;;;;;;;;;;;;;;;;
2021/01/06 09:41:29;;;;;;;10.95;8.95;;;6.90;99.90;;;;;;5892681;24;20168;-78
2021/01/06 10:05:52;;;;;;;12.73;10.68;;;7.50;99.90;;;;;;6014426;23;20181;-78
2021/01/06 10:09:44;;;;;;;;;;;;;;;;;;;;;
2021/01/06 10:21:49;;;;;;;11.65;9.40;;;7.90;99.90;;;;;;6032716;23;20934;-80
2021/01/06 10:29:00;;;;;;;;;;;;;;;;;;;;;
2021/01/06 10:46:08;;;;;;;11.07;9.32;;;8.20;99.90;;;;;;6032280;23;20519;-80
2021/01/06 10:58:32;;;;;;;11.10;8.90;;;7.60;99.90;;;;;;5916680;24;20169;-78
2021/01/06 11:01:41;;;;;;;10.88;8.88;;;7.50;99.90;;;;;;5906887;24;20942;-78
2021/01/06 11:04:51;;;;;;;11.57;10.38;;;7.40;99.90;;;;;;5986576;23;20623;-78
2021/01/06 11:08:07;;;;;;;10.35;9.00;;;7.30;99.90;;;;;;5935135;23;20558;-78
2021/01/06 11:14:25;;;;;;;9.45;8.50;;;7.30;99.90;;;;;;5898445;24;20159;-78
2021/01/06 11:17:20;;;;;;;9.55;8.65;;;7.30;99.90;;;;;;5898480;23;20172;-77
2021/01/06 11:20:11;;;;;;;9.38;8.45;;;7.30;99.90;;;;;;5898007;24;20167;-77
2021/01/06 11:22:46;;;;;;;8.35;7.32;;;7.30;99.90;;;;;;5899810;24;20167;-77
2021/01/06 11:25:50;;;;;;;7.88;7.13;;;7.30;99.90;;;;;;5876597;24;20175;-80
2021/01/06 11:28:40;;;;;;;8.05;7.20;;;7.30;99.90;;;;;;5875267;24;20505;-78
2021/01/06 11:31:32;;;;;;;6.78;6.07;;;7.30;99.90;;;;;;5897826;24;20159;-79
2021/01/06 11:34:13;;;;;;;7.95;7.00;;;7.30;99.90;;;;;;5988396;23;20536;-78
2021/01/06 11:37:06;;;;;;;;;;;;;;;;;;;;;
2021/01/06 11:40:47;;;;;;;9.95;8.60;;;7.40;99.90;;;;;;6131146;23;20157;-80
2021/01/06 11:44:30;;;;;;;7.18;6.53;;;7.30;99.90;;;;;;5963074;23;20224;-80
2021/01/06 12:08:15;;;;;;;;;;;;;;;;;;;;;
2021/01/06 12:12:01;;;;;;;10.50;9.25;;;7.30;99.90;;;;;;5962780;23;20168;-78
2021/01/06 12:15:23;;;;;;;10.32;8.95;;;7.30;99.90;;;;;;5958059;23;20178;-79
2021/01/06 12:18:24;;;;;;;9.60;8.30;;;7.30;99.90;;;;;;5978117;23;20875;-78
2021/01/06 12:25:39;;;;;;;9.75;8.85;;;7.20;99.90;;;;;;6034346;23;20184;-79
2021/01/06 12:32:23;;;;;;;11.35;10.18;;;7.20;99.90;;;;;;6100591;23;20678;-79
2021/01/06 12:35:22;;;;;;;17.63;12.65;;;7.10;99.90;;;;;;5926919;24;20246;-80
2021/01/06 12:38:03;;;;;;;13.48;11.90;;;7.10;99.90;;;;;;6010831;23;20168;-80
2021/01/06 12:40:29;;;;;;;13.82;12.20;;;7.10;99.90;;;;;;6012903;23;20183;-79
2021/01/06 12:43:36;;;;;;;15.70;12.05;;;7.10;99.90;;;;;;5991066;23;20153;-79
2021/01/06 12:47:10;;;;;;;;;;;;;;;;;;;;;
2021/01/06 12:54:32;;;;;;;13.68;12.05;;;7.00;99.90;;;;;;6042717;23;20666;-79
2021/01/06 12:58:37;;;;;;;16.80;14.50;;;7.10;99.90;;;;;;6147963;23;20166;-78
2021/01/06 13:01:50;;;;;;;17.80;13.68;;;7.00;99.90;;;;;;6086129;23;20165;-79
2021/01/06 13:04:37;;;;;;;15.52;13.93;;;7.10;99.90;;;;;;6138433;23;20296;-80
2021/01/06 13:07:16;;;;;;;16.65;13.98;;;7.10;99.90;;;;;;6137692;23;20551;-79
2021/01/06 13:09:53;;;;;;;14.63;13.13;;;7.10;99.90;;;;;;6134383;23;20161;-78
2021/01/06 13:12:31;;;;;;;16.35;14.65;;;7.00;99.90;;;;;;6133876;23;20149;-79
2021/01/06 13:15:12;;;;;;;14.70;13.20;;;7.10;99.90;;;;;;6132495;23;20169;-79
2021/01/06 13:18:09;;;;;;;14.43;12.25;;;7.10;99.90;;;;;;6134060;23;20155;-80
2021/01/06 13:20:44;;;;;;;15.75;13.13;;;7.10;99.90;;;;;;6106830;23;20249;-80
2021/01/06 13:23:44;;;;;;;16.15;13.43;;;7.10;99.90;;;;;;6157208;23;20173;-79
2021/01/06 13:26:16;;;;;;;12.95;11.70;;;7.10;99.90;;;;;;6132214;23;20265;-79
2021/01/06 13:28:51;;;;;;;12.32;11.13;;;7.20;99.90;;;;;;6138648;23;20177;-78
2021/01/06 13:31:23;;;;;;;13.90;11.95;;;7.20;99.90;;;;;;6161480;23;20145;-78
2021/01/06 13:33:56;;;;;;;12.75;11.45;;;7.20;99.90;;;;;;6136867;23;20133;-78
2021/01/06 13:36:59;;;;;;;15.13;12.23;;;7.20;99.90;;;;;;6134290;23;20180;-78
2021/01/06 13:40:40;;;;;;;10.07;9.07;;;7.20;99.90;;;;;;6139584;23;20164;-79
2021/01/06 13:43:23;;;;;;;12.50;11.02;;;7.20;99.90;;;;;;6127439;23;20790;-79
2021/01/06 13:46:16;;;;;;;12.88;11.48;;;7.20;99.90;;;;;;6132436;23;20227;-78
2021/01/06 13:49:10;;;;;;;14.73;11.75;;;7.20;99.90;;;;;;6103280;23;20494;-78
2021/01/06 13:51:49;;;;;;;13.48;11.60;;;7.10;99.90;;;;;;6158127;23;20152;-78
2021/01/06 13:54:41;;;;;;;14.73;13.23;;;7.10;99.90;;;;;;6109938;23;20146;-78
2021/01/06 13:57:35;;;;;;;17.45;15.52;;;7.10;99.90;;;;;;6152476;23;20164;-79
2021/01/06 14:00:12;;;;;;;15.23;13.63;;;7.10;99.90;;;;;;6108452;23;20157;-78
2021/01/06 14:02:46;;;;;;;14.57;13.07;;;7.10;99.90;;;;;;6109619;23;20144;-79
2021/01/06 14:06:00;;;;;;;15.98;14.25;;;7.10;99.90;;;;;;6135523;23;20181;-78
2021/01/06 14:08:54;;;;;;;13.85;12.40;;;7.10;99.90;;;;;;6095156;23;20208;-78
2021/01/06 14:11:42;;;;;;;15.30;13.80;;;7.10;99.90;;;;;;6107112;23;20154;-79
2021/01/06 14:32:29;;;;;;;;;;;;;;;;;;;;;
2021/01/06 14:41:00;;;;;;;;;;;;;;;;;;;;;
2021/01/06 14:44:42;;;;;;;20.75;17.40;;;6.80;99.90;;;;;;6065497;23;20156;-78
2021/01/06 14:49:32;;;;;;;;;;;;;;;;;;;;;
2021/01/06 14:53:12;;;;;;;20.42;14.85;;;6.80;99.90;;;;;;5949793;24;20159;-80
2021/01/06 14:56:15;;;;;;;20.00;17.65;;;6.70;99.90;;;;;;6038736;23;20178;-77
2021/01/06 15:03:28;;;;;;;20.60;16.45;;;6.70;99.90;;;;;;6155764;23;20624;-78
2021/01/06 15:06:34;;;;;;;19.27;14.75;;;6.60;99.90;;;;;;6129679;23;20562;-80
2021/01/06 15:10:04;;;;;;;17.40;13.88;;;6.60;99.90;;;;;;6152006;23;20225;-77
2021/01/06 15:17:34;;;;;;;20.88;15.98;;;6.50;99.90;;;;;;6063038;23;20190;-79
2021/01/06 15:21:23;;;;;;;18.88;15.45;;;6.50;99.90;;;;;;6095371;23;20171;-78
2021/01/06 15:24:47;;;;;;;18.45;14.85;;;6.50;99.90;;;;;;6099294;23;20248;-76
2021/01/06 15:27:20;;;;;;;25.00;16.98;;;6.50;99.90;;;;;;6153279;23;20356;-76
2021/01/06 15:30:24;;;;;;;21.88;17.50;;;6.50;99.90;;;;;;6095289;23;20154;-77
2021/01/06 15:33:52;;;;;;;20.00;16.38;;;6.50;99.90;;;;;;6152876;23;20135;-78
2021/01/06 15:36:43;;;;;;;20.60;15.38;;;6.40;99.90;;;;;;6100860;23;20170;-77
2021/01/06 15:40:22;;;;;;;;;;;;;;;;;;;;;
2021/01/06 15:44:29;;;;;;;;;;;;;;;;;;;;;
2021/01/06 15:47:45;;;;;;;22.05;18.15;;;6.40;99.90;;;;;;6037016;23;20193;-77
2021/01/06 15:50:26;;;;;;;17.90;14.20;;;6.50;99.90;;;;;;6011888;23;20167;-77
2021/01/06 15:53:37;;;;;;;21.95;16.77;;;6.40;99.90;;;;;;6097049;23;20688;-77
2021/01/06 15:56:15;;;;;;;20.30;15.40;;;6.40;99.90;;;;;;6119659;23;20181;-77
2021/01/06 15:59:01;;;;;;;16.40;14.70;;;6.40;99.90;;;;;;6143344;23;20162;-77
2021/01/06 16:01:33;;;;;;;19.23;15.25;;;6.40;99.90;;;;;;6141130;23;20188;-77
2021/01/06 16:04:01;;;;;;;17.67;13.77;;;6.40;99.90;;;;;;6141465;23;20281;-77
2021/01/06 16:06:51;;;;;;;17.65;15.25;;;6.40;99.90;;;;;;6118867;23;20224;-77
2021/01/06 16:09:23;;;;;;;17.98;14.38;;;6.40;99.90;;;;;;6167964;23;20162;-77
2021/01/06 16:12:24;;;;;;;21.33;13.40;;;6.30;99.90;;;;;;6131504;23;20552;-77
2021/01/06 16:15:00;;;;;;;13.35;11.73;;;6.30;99.90;;;;;;6123666;23;20253;-77
2021/01/06 16:17:32;;;;;;;14.90;13.05;;;6.30;99.90;;;;;;6153003;23;20131;-77
2021/01/06 16:20:09;;;;;;;14.65;11.98;;;6.30;99.90;;;;;;6038023;23;20169;-77
2021/01/06 16:22:38;;;;;;;15.38;12.93;;;6.30;99.90;;;;;;6005119;23;20236;-76
2021/01/06 16:25:18;;;;;;;15.82;12.10;;;6.30;99.90;;;;;;6002938;23;20198;-77
2021/01/06 16:27:46;;;;;;;15.75;11.50;;;6.30;99.90;;;;;;6003142;23;20646;-77
2021/01/06 16:30:19;;;;;;;14.60;13.07;;;6.30;99.90;;;;;;6002905;23;20200;-77
2021/01/06 16:33:12;;;;;;;14.63;10.90;;;6.30;99.90;;;;;;6023136;23;20991;-79
2021/01/06 16:35:41;;;;;;;18.30;10.93;;;6.30;99.90;;;;;;6127418;23;20146;-79
2021/01/06 16:38:16;;;;;;;16.88;12.25;;;6.20;99.90;;;;;;6102049;23;20551;-78
2021/01/06 16:40:51;;;;;;;12.65;11.27;;;6.20;99.90;;;;;;6153295;23;20204;-79
2021/01/06 16:43:27;;;;;;;14.52;12.27;;;6.20;99.90;;;;;;6105213;23;20510;-78
2021/01/06 16:46:17;;;;;;;16.23;11.18;;;6.20;99.90;;;;;;6098285;23;20190;-79
2021/01/06 16:49:09;;;;;;;13.60;11.48;;;6.20;99.90;;;;;;6123843;23;20600;-79
2021/01/06 16:51:54;;;;;;;12.93;11.57;;;6.20;99.90;;;;;;6127572;23;20686;-78
2021/01/06 16:54:32;;;;;;;16.33;11.77;;;6.20;99.90;;;;;;6098820;23;20166;-79
2021/01/06 16:57:05;;;;;;;16.50;12.73;;;6.10;99.90;;;;;;6051015;23;20193;-80
2021/01/06 16:59:44;;;;;;;12.40;10.75;;;6.10;99.90;;;;;;6098091;23;20143;-80
2021/01/06 17:02:17;;;;;;;13.80;11.45;;;6.10;99.90;;;;;;6122387;23;20135;-80
2021/01/06 17:04:43;;;;;;;10.73;9.63;;;6.10;99.90;;;;;;6074424;23;20518;-80
2021/01/06 17:07:26;;;;;;;14.95;11.95;;;6.10;99.90;;;;;;6074153;23;20242;-79
2021/01/06 17:09:56;;;;;;;13.02;11.13;;;6.10;99.90;;;;;;6074509;23;20644;-79